Stolt Effort — ZCSP6 — position and weather

sailwx.info

Track history (hours):
 
Tides and Currents Weather Stations Pressure Air Temp Water Temp Dewpoint Dewpoint Depression Visibility Wind Speed Wind Dir Waves Ship Positions

Stolt Effort

Last reported at 2016-Feb-09 07:28 UTC. Time now 2016-Feb-11 12:58 UTC.
Position N 29°53' E 123°28'.

Length 176 m; draft 11.4 m.

Type: Ship (hazmat cat B). MMSI: 319445000.

Date/timePositionNaut miles runAvg speedWind from/ knotsBaromVisibWave heightAir tempDewpointWater temp
2016-Feb-09 07:28N 29°53' E 123°28'2117.0
2016-Feb-09 06:14N 29°49' E 123°05'1216.7
2016-Feb-09 05:33N 29°48' E 122°52'1515.4
2016-Feb-09 04:33N 29°47' E 122°34'1514.3
2016-Feb-09 03:32N 29°46' E 122°18'1110.6
2016-Feb-09 02:31N 29°54' E 122°10'9 9.2
2016-Feb-09 01:32N 29°57' E 121°60'2 0.0
2016-Feb-07 02:15N 29°57' E 121°57'1 1.8
2016-Feb-07 01:31N 29°58' E 121°58'1010.0
2016-Feb-07 00:32N 29°56' E 122°09'1312.5
2016-Feb-06 23:30N 29°46' E 122°18'9 8.4
2016-Feb-06 22:27N 29°45' E 122°28'  
Track history (hours):
 
Tides and Currents Weather Stations Pressure Air Temp Water Temp Dewpoint Dewpoint Depression Visibility Wind Speed Wind Dir Waves Ship Positions

Stolt Effort

Last reported at 2016-Feb-09 07:28 UTC. Time now 2016-Feb-11 12:58 UTC.
Position N 29°53' E 123°28'.

Length 176 m; draft 11.4 m.

Type: Ship (hazmat cat B). MMSI: 319445000.

Date/timePositionNaut miles runAvg speedWind from/ knotsBaromVisibWave heightAir tempDewpointWater temp
2016-Feb-09 07:28N 29°53' E 123°28'2117.0
2016-Feb-09 06:14N 29°49' E 123°05'1216.7
2016-Feb-09 05:33N 29°48' E 122°52'1515.4
2016-Feb-09 04:33N 29°47' E 122°34'1514.3
2016-Feb-09 03:32N 29°46' E 122°18'1110.6
2016-Feb-09 02:31N 29°54' E 122°10'9 9.2
2016-Feb-09 01:32N 29°57' E 121°60'2 0.0
2016-Feb-07 02:15N 29°57' E 121°57'1 1.8
2016-Feb-07 01:31N 29°58' E 121°58'1010.0
2016-Feb-07 00:32N 29°56' E 122°09'1312.5
2016-Feb-06 23:30N 29°46' E 122°18'9 8.4
2016-Feb-06 22:27N 29°45' E 122°28'  

Dump ship's entire track history